sensor_id;sensor_type;location;lat;lon;timestamp;P1;durP1;ratioP1;P2;durP2;ratioP2
21769;SDS011;11046;49.558;8.674;2024-03-06T00:02:40;31.43;;;15.50;;
21769;SDS011;11046;49.558;8.674;2024-03-06T00:05:41;32.07;;;15.40;;
21769;SDS011;11046;49.558;8.674;2024-03-06T00:08:42;28.67;;;15.27;;
21769;SDS011;11046;49.558;8.674;2024-03-06T00:11:42;26.03;;;15.00;;
21769;SDS011;11046;49.558;8.674;2024-03-06T00:14:43;31.50;;;15.40;;
21769;SDS011;11046;49.558;8.674;2024-03-06T00:17:44;27.73;;;15.10;;
21769;SDS011;11046;49.558;8.674;2024-03-06T00:20:44;28.80;;;15.50;;
21769;SDS011;11046;49.558;8.674;2024-03-06T00:23:45;31.93;;;15.37;;
21769;SDS011;11046;49.558;8.674;2024-03-06T00:26:48;28.77;;;14.70;;
21769;SDS011;11046;49.558;8.674;2024-03-06T00:29:49;26.73;;;14.67;;
21769;SDS011;11046;49.558;8.674;2024-03-06T00:32:49;29.00;;;14.37;;
21769;SDS011;11046;49.558;8.674;2024-03-06T00:35:50;30.63;;;15.07;;
21769;SDS011;11046;49.558;8.674;2024-03-06T00:38:51;30.93;;;15.03;;
21769;SDS011;11046;49.558;8.674;2024-03-06T00:41:51;32.10;;;15.87;;
21769;SDS011;11046;49.558;8.674;2024-03-06T00:44:53;30.47;;;15.00;;
21769;SDS011;11046;49.558;8.674;2024-03-06T00:47:53;30.83;;;15.27;;
21769;SDS011;11046;49.558;8.674;2024-03-06T00:50:54;30.87;;;14.90;;
21769;SDS011;11046;49.558;8.674;2024-03-06T00:53:55;30.30;;;14.47;;
21769;SDS011;11046;49.558;8.674;2024-03-06T00:56:55;29.27;;;15.37;;
21769;SDS011;11046;49.558;8.674;2024-03-06T00:59:57;25.07;;;13.27;;
21769;SDS011;11046;49.558;8.674;2024-03-06T01:02:58;33.07;;;14.80;;
21769;SDS011;11046;49.558;8.674;2024-03-06T01:05:58;27.63;;;14.63;;
21769;SDS011;11046;49.558;8.674;2024-03-06T01:08:59;28.17;;;15.03;;
21769;SDS011;11046;49.558;8.674;2024-03-06T01:12:00;28.00;;;14.43;;
21769;SDS011;11046;49.558;8.674;2024-03-06T01:15:00;27.93;;;14.97;;
21769;SDS011;11046;49.558;8.674;2024-03-06T01:18:01;28.43;;;14.47;;
21769;SDS011;11046;49.558;8.674;2024-03-06T01:21:01;28.00;;;14.23;;
21769;SDS011;11046;49.558;8.674;2024-03-06T01:24:03;28.00;;;14.50;;
21769;SDS011;11046;49.558;8.674;2024-03-06T01:27:04;26.40;;;14.13;;
21769;SDS011;11046;49.558;8.674;2024-03-06T01:30:05;25.03;;;14.17;;
21769;SDS011;11046;49.558;8.674;2024-03-06T01:33:06;29.67;;;13.67;;
21769;SDS011;11046;49.558;8.674;2024-03-06T01:36:07;28.33;;;14.50;;
21769;SDS011;11046;49.558;8.674;2024-03-06T01:39:08;28.53;;;15.00;;
21769;SDS011;11046;49.558;8.674;2024-03-06T01:42:09;32.93;;;15.83;;
21769;SDS011;11046;49.558;8.674;2024-03-06T01:45:10;33.67;;;15.00;;
21769;SDS011;11046;49.558;8.674;2024-03-06T01:48:11;26.90;;;13.70;;
21769;SDS011;11046;49.558;8.674;2024-03-06T01:51:11;25.13;;;13.10;;
21769;SDS011;11046;49.558;8.674;2024-03-06T01:54:12;25.77;;;13.57;;
21769;SDS011;11046;49.558;8.674;2024-03-06T01:57:13;26.03;;;14.43;;
21769;SDS011;11046;49.558;8.674;2024-03-06T02:00:16;33.33;;;15.07;;
21769;SDS011;11046;49.558;8.674;2024-03-06T02:03:18;26.97;;;14.87;;
21769;SDS011;11046;49.558;8.674;2024-03-06T02:06:22;27.80;;;14.53;;
21769;SDS011;11046;49.558;8.674;2024-03-06T02:09:23;28.03;;;15.33;;
21769;SDS011;11046;49.558;8.674;2024-03-06T02:12:23;28.13;;;14.63;;
21769;SDS011;11046;49.558;8.674;2024-03-06T02:15:24;28.57;;;15.23;;
21769;SDS011;11046;49.558;8.674;2024-03-06T02:18:25;29.40;;;14.93;;
21769;SDS011;11046;49.558;8.674;2024-03-06T02:21:26;29.27;;;15.07;;
21769;SDS011;11046;49.558;8.674;2024-03-06T02:24:27;29.20;;;14.07;;
21769;SDS011;11046;49.558;8.674;2024-03-06T02:27:27;24.77;;;13.73;;
21769;SDS011;11046;49.558;8.674;2024-03-06T02:30:28;25.10;;;14.13;;
21769;SDS011;11046;49.558;8.674;2024-03-06T02:33:30;29.50;;;15.07;;
21769;SDS011;11046;49.558;8.674;2024-03-06T02:36:31;27.17;;;14.07;;
21769;SDS011;11046;49.558;8.674;2024-03-06T02:39:32;24.93;;;13.47;;
21769;SDS011;11046;49.558;8.674;2024-03-06T02:45:56;30.33;;;15.70;;
21769;SDS011;11046;49.558;8.674;2024-03-06T02:48:57;30.27;;;16.00;;
21769;SDS011;11046;49.558;8.674;2024-03-06T02:51:58;29.97;;;14.43;;
21769;SDS011;11046;49.558;8.674;2024-03-06T02:55:00;26.53;;;14.77;;
21769;SDS011;11046;49.558;8.674;2024-03-06T02:58:04;28.90;;;15.60;;
21769;SDS011;11046;49.558;8.674;2024-03-06T03:01:05;29.00;;;15.57;;
21769;SDS011;11046;49.558;8.674;2024-03-06T03:04:05;29.50;;;15.67;;
21769;SDS011;11046;49.558;8.674;2024-03-06T03:07:07;28.90;;;14.97;;
21769;SDS011;11046;49.558;8.674;2024-03-06T03:10:08;29.90;;;14.73;;
21769;SDS011;11046;49.558;8.674;2024-03-06T03:13:10;28.13;;;15.03;;
21769;SDS011;11046;49.558;8.674;2024-03-06T03:16:18;26.97;;;13.73;;
21769;SDS011;11046;49.558;8.674;2024-03-06T03:19:20;24.20;;;13.97;;
21769;SDS011;11046;49.558;8.674;2024-03-06T03:22:20;27.93;;;14.23;;
21769;SDS011;11046;49.558;8.674;2024-03-06T03:25:21;28.07;;;13.73;;
21769;SDS011;11046;49.558;8.674;2024-03-06T03:28:22;26.17;;;14.20;;
21769;SDS011;11046;49.558;8.674;2024-03-06T03:31:22;26.50;;;14.13;;
21769;SDS011;11046;49.558;8.674;2024-03-06T03:34:23;27.23;;;14.67;;
21769;SDS011;11046;49.558;8.674;2024-03-06T03:37:23;25.43;;;14.67;;
21769;SDS011;11046;49.558;8.674;2024-03-06T03:40:24;28.20;;;13.83;;
21769;SDS011;11046;49.558;8.674;2024-03-06T03:43:25;28.10;;;14.23;;
21769;SDS011;11046;49.558;8.674;2024-03-06T03:46:26;27.43;;;14.07;;
21769;SDS011;11046;49.558;8.674;2024-03-06T03:49:27;23.57;;;13.27;;
21769;SDS011;11046;49.558;8.674;2024-03-06T03:52:27;24.57;;;12.33;;
21769;SDS011;11046;49.558;8.674;2024-03-06T03:55:29;23.60;;;13.23;;
21769;SDS011;11046;49.558;8.674;2024-03-06T03:58:30;24.57;;;12.90;;
21769;SDS011;11046;49.558;8.674;2024-03-06T04:01:30;25.63;;;13.83;;
21769;SDS011;11046;49.558;8.674;2024-03-06T04:04:31;28.20;;;14.93;;
21769;SDS011;11046;49.558;8.674;2024-03-06T04:07:31;23.23;;;13.70;;
21769;SDS011;11046;49.558;8.674;2024-03-06T04:10:32;23.23;;;13.17;;
21769;SDS011;11046;49.558;8.674;2024-03-06T04:13:36;24.73;;;13.50;;
21769;SDS011;11046;49.558;8.674;2024-03-06T04:16:37;24.40;;;13.27;;
21769;SDS011;11046;49.558;8.674;2024-03-06T04:19:38;23.27;;;13.57;;
21769;SDS011;11046;49.558;8.674;2024-03-06T04:22:39;29.27;;;12.60;;
21769;SDS011;11046;49.558;8.674;2024-03-06T04:25:40;22.57;;;11.37;;
21769;SDS011;11046;49.558;8.674;2024-03-06T04:28:40;23.33;;;12.53;;
21769;SDS011;11046;49.558;8.674;2024-03-06T04:31:41;19.20;;;11.63;;
21769;SDS011;11046;49.558;8.674;2024-03-06T04:34:42;21.40;;;12.00;;
21769;SDS011;11046;49.558;8.674;2024-03-06T04:37:42;21.00;;;11.93;;
21769;SDS011;11046;49.558;8.674;2024-03-06T04:40:43;20.23;;;12.07;;
21769;SDS011;11046;49.558;8.674;2024-03-06T04:43:44;22.97;;;12.87;;
21769;SDS011;11046;49.558;8.674;2024-03-06T04:46:45;23.10;;;12.43;;
21769;SDS011;11046;49.558;8.674;2024-03-06T04:49:46;23.77;;;12.97;;
21769;SDS011;11046;49.558;8.674;2024-03-06T04:52:46;24.60;;;12.57;;
21769;SDS011;11046;49.558;8.674;2024-03-06T04:55:47;23.37;;;13.00;;
21769;SDS011;11046;49.558;8.674;2024-03-06T04:58:48;20.83;;;12.07;;
21769;SDS011;11046;49.558;8.674;2024-03-06T05:01:48;21.63;;;12.07;;
21769;SDS011;11046;49.558;8.674;2024-03-06T05:04:49;23.77;;;12.30;;
21769;SDS011;11046;49.558;8.674;2024-03-06T05:07:50;21.50;;;11.87;;
21769;SDS011;11046;49.558;8.674;2024-03-06T05:10:51;20.23;;;11.30;;
21769;SDS011;11046;49.558;8.674;2024-03-06T05:13:52;19.77;;;11.33;;
21769;SDS011;11046;49.558;8.674;2024-03-06T05:16:52;23.67;;;12.20;;
21769;SDS011;11046;49.558;8.674;2024-03-06T05:19:53;20.40;;;11.80;;
21769;SDS011;11046;49.558;8.674;2024-03-06T05:22:54;25.63;;;12.57;;
21769;SDS011;11046;49.558;8.674;2024-03-06T05:25:55;23.00;;;12.80;;
21769;SDS011;11046;49.558;8.674;2024-03-06T05:28:56;19.73;;;11.97;;
21769;SDS011;11046;49.558;8.674;2024-03-06T05:31:56;21.00;;;12.30;;
21769;SDS011;11046;49.558;8.674;2024-03-06T05:34:57;27.23;;;12.90;;
21769;SDS011;11046;49.558;8.674;2024-03-06T05:37:58;22.07;;;12.60;;
21769;SDS011;11046;49.558;8.674;2024-03-06T05:40:58;22.93;;;12.17;;
21769;SDS011;11046;49.558;8.674;2024-03-06T05:43:59;22.33;;;12.10;;
21769;SDS011;11046;49.558;8.674;2024-03-06T05:47:01;20.40;;;11.40;;
21769;SDS011;11046;49.558;8.674;2024-03-06T05:50:02;22.77;;;12.43;;
21769;SDS011;11046;49.558;8.674;2024-03-06T05:53:04;25.17;;;12.83;;
21769;SDS011;11046;49.558;8.674;2024-03-06T05:56:05;20.60;;;12.07;;
21769;SDS011;11046;49.558;8.674;2024-03-06T05:59:06;20.87;;;12.00;;
21769;SDS011;11046;49.558;8.674;2024-03-06T06:05:25;22.33;;;12.40;;
21769;SDS011;11046;49.558;8.674;2024-03-06T06:08:25;20.17;;;12.00;;
21769;SDS011;11046;49.558;8.674;2024-03-06T06:11:26;21.60;;;12.37;;
21769;SDS011;11046;49.558;8.674;2024-03-06T06:14:26;21.80;;;12.27;;
21769;SDS011;11046;49.558;8.674;2024-03-06T06:17:29;22.67;;;11.93;;
21769;SDS011;11046;49.558;8.674;2024-03-06T06:20:29;25.90;;;12.90;;
21769;SDS011;11046;49.558;8.674;2024-03-06T06:23:30;24.07;;;12.33;;
21769;SDS011;11046;49.558;8.674;2024-03-06T06:26:31;21.87;;;11.90;;
21769;SDS011;11046;49.558;8.674;2024-03-06T06:29:32;23.10;;;12.37;;
21769;SDS011;11046;49.558;8.674;2024-03-06T06:32:32;20.93;;;11.83;;
21769;SDS011;11046;49.558;8.674;2024-03-06T06:35:33;25.00;;;12.37;;
21769;SDS011;11046;49.558;8.674;2024-03-06T06:38:34;22.77;;;11.77;;
21769;SDS011;11046;49.558;8.674;2024-03-06T06:41:35;21.93;;;11.57;;
21769;SDS011;11046;49.558;8.674;2024-03-06T06:44:36;21.70;;;11.00;;
21769;SDS011;11046;49.558;8.674;2024-03-06T06:47:37;18.30;;;10.60;;
21769;SDS011;11046;49.558;8.674;2024-03-06T06:50:39;29.97;;;13.33;;
21769;SDS011;11046;49.558;8.674;2024-03-06T06:53:40;39.67;;;17.27;;
21769;SDS011;11046;49.558;8.674;2024-03-06T06:56:43;30.60;;;15.53;;
21769;SDS011;11046;49.558;8.674;2024-03-06T06:59:44;22.50;;;13.03;;
21769;SDS011;11046;49.558;8.674;2024-03-06T07:02:44;22.13;;;13.10;;
21769;SDS011;11046;49.558;8.674;2024-03-06T07:05:45;23.13;;;12.00;;
21769;SDS011;11046;49.558;8.674;2024-03-06T07:08:45;19.57;;;11.50;;
21769;SDS011;11046;49.558;8.674;2024-03-06T07:16:10;21.53;;;12.27;;
21769;SDS011;11046;49.558;8.674;2024-03-06T07:19:10;23.50;;;13.03;;
21769;SDS011;11046;49.558;8.674;2024-03-06T07:22:11;22.93;;;12.87;;
21769;SDS011;11046;49.558;8.674;2024-03-06T07:25:12;24.60;;;13.37;;
21769;SDS011;11046;49.558;8.674;2024-03-06T07:28:12;22.07;;;12.93;;
21769;SDS011;11046;49.558;8.674;2024-03-06T07:31:13;23.40;;;12.43;;
21769;SDS011;11046;49.558;8.674;2024-03-06T07:34:14;22.37;;;12.73;;
21769;SDS011;11046;49.558;8.674;2024-03-06T07:37:14;28.13;;;12.93;;
21769;SDS011;11046;49.558;8.674;2024-03-06T07:40:15;22.93;;;12.73;;
21769;SDS011;11046;49.558;8.674;2024-03-06T07:43:15;27.97;;;13.60;;
21769;SDS011;11046;49.558;8.674;2024-03-06T07:46:16;24.60;;;13.27;;
21769;SDS011;11046;49.558;8.674;2024-03-06T07:49:17;25.70;;;14.03;;
21769;SDS011;11046;49.558;8.674;2024-03-06T07:52:17;24.77;;;14.00;;
21769;SDS011;11046;49.558;8.674;2024-03-06T07:55:18;25.37;;;14.37;;
21769;SDS011;11046;49.558;8.674;2024-03-06T07:58:20;25.27;;;13.07;;
21769;SDS011;11046;49.558;8.674;2024-03-06T08:01:21;24.63;;;13.30;;
21769;SDS011;11046;49.558;8.674;2024-03-06T08:04:22;21.43;;;12.90;;
21769;SDS011;11046;49.558;8.674;2024-03-06T08:07:23;22.83;;;13.13;;
21769;SDS011;11046;49.558;8.674;2024-03-06T08:10:24;23.13;;;13.60;;
21769;SDS011;11046;49.558;8.674;2024-03-06T08:13:24;23.67;;;13.40;;
21769;SDS011;11046;49.558;8.674;2024-03-06T08:16:25;20.43;;;12.57;;
21769;SDS011;11046;49.558;8.674;2024-03-06T08:19:25;21.37;;;12.23;;
21769;SDS011;11046;49.558;8.674;2024-03-06T08:22:26;21.83;;;12.80;;
21769;SDS011;11046;49.558;8.674;2024-03-06T08:25:27;23.30;;;12.47;;
21769;SDS011;11046;49.558;8.674;2024-03-06T08:28:28;23.73;;;13.07;;
21769;SDS011;11046;49.558;8.674;2024-03-06T08:31:28;22.80;;;13.13;;
21769;SDS011;11046;49.558;8.674;2024-03-06T08:34:29;24.83;;;13.00;;
21769;SDS011;11046;49.558;8.674;2024-03-06T08:37:32;20.17;;;11.97;;
21769;SDS011;11046;49.558;8.674;2024-03-06T08:40:34;20.30;;;12.57;;
21769;SDS011;11046;49.558;8.674;2024-03-06T08:43:34;22.47;;;11.97;;
21769;SDS011;11046;49.558;8.674;2024-03-06T08:46:38;21.03;;;11.10;;
21769;SDS011;11046;49.558;8.674;2024-03-06T08:49:42;24.00;;;12.17;;
21769;SDS011;11046;49.558;8.674;2024-03-06T08:52:45;16.90;;;11.17;;
21769;SDS011;11046;49.558;8.674;2024-03-06T08:56:09;23.73;;;11.60;;
21769;SDS011;11046;49.558;8.674;2024-03-06T08:59:09;18.90;;;11.60;;
21769;SDS011;11046;49.558;8.674;2024-03-06T09:02:18;24.97;;;12.67;;
21769;SDS011;11046;49.558;8.674;2024-03-06T09:05:42;23.50;;;14.10;;
21769;SDS011;11046;49.558;8.674;2024-03-06T09:08:43;21.23;;;11.63;;
21769;SDS011;11046;49.558;8.674;2024-03-06T09:11:43;20.70;;;11.93;;
21769;SDS011;11046;49.558;8.674;2024-03-06T09:14:46;20.03;;;12.10;;
21769;SDS011;11046;49.558;8.674;2024-03-06T09:17:47;18.60;;;10.87;;
21769;SDS011;11046;49.558;8.674;2024-03-06T09:20:51;21.67;;;11.83;;
21769;SDS011;11046;49.558;8.674;2024-03-06T09:23:55;20.97;;;11.87;;
21769;SDS011;11046;49.558;8.674;2024-03-06T09:27:01;17.00;;;11.20;;
21769;SDS011;11046;49.558;8.674;2024-03-06T09:30:07;19.93;;;11.47;;
21769;SDS011;11046;49.558;8.674;2024-03-06T09:33:16;20.37;;;11.27;;
21769;SDS011;11046;49.558;8.674;2024-03-06T09:36:23;17.43;;;11.30;;
21769;SDS011;11046;49.558;8.674;2024-03-06T09:39:26;18.93;;;12.57;;
21769;SDS011;11046;49.558;8.674;2024-03-06T09:42:30;19.40;;;12.33;;
21769;SDS011;11046;49.558;8.674;2024-03-06T09:45:31;18.87;;;11.97;;
21769;SDS011;11046;49.558;8.674;2024-03-06T09:48:33;19.50;;;11.73;;
21769;SDS011;11046;49.558;8.674;2024-03-06T09:51:49;21.80;;;11.77;;
21769;SDS011;11046;49.558;8.674;2024-03-06T09:54:54;16.60;;;10.47;;
21769;SDS011;11046;49.558;8.674;2024-03-06T09:58:00;16.80;;;10.80;;
21769;SDS011;11046;49.558;8.674;2024-03-06T10:01:06;17.27;;;9.87;;
21769;SDS011;11046;49.558;8.674;2024-03-06T10:04:18;15.27;;;10.20;;
21769;SDS011;11046;49.558;8.674;2024-03-06T10:07:24;17.27;;;10.47;;
21769;SDS011;11046;49.558;8.674;2024-03-06T10:10:41;15.67;;;9.50;;
21769;SDS011;11046;49.558;8.674;2024-03-06T10:13:46;15.73;;;9.53;;
21769;SDS011;11046;49.558;8.674;2024-03-06T10:16:53;17.17;;;9.73;;
21769;SDS011;11046;49.558;8.674;2024-03-06T10:23:47;16.77;;;9.40;;
21769;SDS011;11046;49.558;8.674;2024-03-06T10:26:59;15.80;;;9.30;;
21769;SDS011;11046;49.558;8.674;2024-03-06T10:30:07;17.50;;;10.50;;
21769;SDS011;11046;49.558;8.674;2024-03-06T10:33:18;15.63;;;10.20;;
21769;SDS011;11046;49.558;8.674;2024-03-06T10:36:19;17.33;;;10.20;;
21769;SDS011;11046;49.558;8.674;2024-03-06T10:39:20;19.37;;;11.00;;
21769;SDS011;11046;49.558;8.674;2024-03-06T10:42:21;16.57;;;10.27;;
21769;SDS011;11046;49.558;8.674;2024-03-06T10:45:33;18.93;;;10.67;;
21769;SDS011;11046;49.558;8.674;2024-03-06T10:48:48;20.13;;;10.60;;
21769;SDS011;11046;49.558;8.674;2024-03-06T10:51:50;17.17;;;10.77;;
21769;SDS011;11046;49.558;8.674;2024-03-06T10:54:52;20.10;;;10.63;;
21769;SDS011;11046;49.558;8.674;2024-03-06T10:57:53;17.30;;;10.47;;
21769;SDS011;11046;49.558;8.674;2024-03-06T11:00:56;17.40;;;11.13;;
21769;SDS011;11046;49.558;8.674;2024-03-06T11:03:59;18.17;;;11.53;;
21769;SDS011;11046;49.558;8.674;2024-03-06T11:07:01;19.67;;;11.23;;
21769;SDS011;11046;49.558;8.674;2024-03-06T11:10:02;18.52;;;10.98;;
21769;SDS011;11046;49.558;8.674;2024-03-06T11:16:30;19.67;;;11.67;;
21769;SDS011;11046;49.558;8.674;2024-03-06T11:23:01;21.88;;;12.82;;
21769;SDS011;11046;49.558;8.674;2024-03-06T11:26:13;21.00;;;12.27;;
21769;SDS011;11046;49.558;8.674;2024-03-06T11:29:22;18.97;;;11.83;;
21769;SDS011;11046;49.558;8.674;2024-03-06T11:32:27;21.08;;;12.02;;
21769;SDS011;11046;49.558;8.674;2024-03-06T11:35:33;20.63;;;11.27;;
21769;SDS011;11046;49.558;8.674;2024-03-06T11:38:56;22.27;;;12.10;;
21769;SDS011;11046;49.558;8.674;2024-03-06T11:42:06;24.38;;;11.80;;
21769;SDS011;11046;49.558;8.674;2024-03-06T11:48:44;20.58;;;12.13;;
21769;SDS011;11046;49.558;8.674;2024-03-06T11:51:55;21.30;;;12.25;;
21769;SDS011;11046;49.558;8.674;2024-03-06T11:54:58;21.17;;;11.25;;
21769;SDS011;11046;49.558;8.674;2024-03-06T11:58:04;21.38;;;12.32;;
21769;SDS011;11046;49.558;8.674;2024-03-06T12:18:08;22.33;;;12.40;;
21769;SDS011;11046;49.558;8.674;2024-03-06T12:21:15;27.55;;;14.07;;
21769;SDS011;11046;49.558;8.674;2024-03-06T12:24:18;25.40;;;12.48;;
21769;SDS011;11046;49.558;8.674;2024-03-06T12:27:22;24.85;;;13.27;;
21769;SDS011;11046;49.558;8.674;2024-03-06T12:33:56;25.85;;;14.57;;
21769;SDS011;11046;49.558;8.674;2024-03-06T12:37:10;25.27;;;13.33;;
21769;SDS011;11046;49.558;8.674;2024-03-06T12:40:11;26.35;;;13.43;;
21769;SDS011;11046;49.558;8.674;2024-03-06T12:43:16;26.30;;;13.27;;
21769;SDS011;11046;49.558;8.674;2024-03-06T12:46:19;23.60;;;12.90;;
21769;SDS011;11046;49.558;8.674;2024-03-06T12:49:20;23.13;;;12.57;;
21769;SDS011;11046;49.558;8.674;2024-03-06T12:52:20;26.27;;;13.77;;
21769;SDS011;11046;49.558;8.674;2024-03-06T12:55:21;23.25;;;12.35;;
21769;SDS011;11046;49.558;8.674;2024-03-06T12:58:21;21.88;;;12.20;;
21769;SDS011;11046;49.558;8.674;2024-03-06T13:01:22;21.15;;;11.90;;
21769;SDS011;11046;49.558;8.674;2024-03-06T13:04:23;27.35;;;11.27;;
21769;SDS011;11046;49.558;8.674;2024-03-06T13:07:23;18.88;;;11.43;;
21769;SDS011;11046;49.558;8.674;2024-03-06T13:10:27;20.33;;;11.25;;
21769;SDS011;11046;49.558;8.674;2024-03-06T13:13:28;22.47;;;11.93;;
21769;SDS011;11046;49.558;8.674;2024-03-06T13:16:29;20.20;;;12.13;;
21769;SDS011;11046;49.558;8.674;2024-03-06T13:19:30;20.75;;;12.10;;
21769;SDS011;11046;49.558;8.674;2024-03-06T13:22:31;21.40;;;11.70;;
21769;SDS011;11046;49.558;8.674;2024-03-06T13:25:31;22.90;;;12.23;;
21769;SDS011;11046;49.558;8.674;2024-03-06T13:28:32;22.48;;;13.02;;
21769;SDS011;11046;49.558;8.674;2024-03-06T13:31:34;22.10;;;12.52;;
21769;SDS011;11046;49.558;8.674;2024-03-06T13:34:48;21.30;;;11.73;;
21769;SDS011;11046;49.558;8.674;2024-03-06T13:37:49;19.60;;;11.45;;
21769;SDS011;11046;49.558;8.674;2024-03-06T13:40:55;18.45;;;10.95;;
21769;SDS011;11046;49.558;8.674;2024-03-06T13:44:01;19.23;;;11.10;;
21769;SDS011;11046;49.558;8.674;2024-03-06T13:47:05;18.77;;;11.30;;
21769;SDS011;11046;49.558;8.674;2024-03-06T13:50:09;17.98;;;11.05;;
21769;SDS011;11046;49.558;8.674;2024-03-06T13:53:15;16.60;;;10.82;;
21769;SDS011;11046;49.558;8.674;2024-03-06T13:56:18;19.33;;;11.43;;
21769;SDS011;11046;49.558;8.674;2024-03-06T13:59:21;21.30;;;12.80;;
21769;SDS011;11046;49.558;8.674;2024-03-06T14:02:24;19.80;;;11.20;;
21769;SDS011;11046;49.558;8.674;2024-03-06T14:05:27;20.33;;;11.18;;
21769;SDS011;11046;49.558;8.674;2024-03-06T14:08:36;17.98;;;10.90;;
21769;SDS011;11046;49.558;8.674;2024-03-06T14:11:41;23.02;;;11.98;;
21769;SDS011;11046;49.558;8.674;2024-03-06T14:14:43;22.80;;;12.45;;
21769;SDS011;11046;49.558;8.674;2024-03-06T14:17:49;23.52;;;13.38;;
21769;SDS011;11046;49.558;8.674;2024-03-06T14:20:56;21.48;;;12.60;;
21769;SDS011;11046;49.558;8.674;2024-03-06T14:24:01;22.97;;;12.90;;
21769;SDS011;11046;49.558;8.674;2024-03-06T14:27:12;22.55;;;12.55;;
21769;SDS011;11046;49.558;8.674;2024-03-06T14:30:33;24.07;;;13.70;;
21769;SDS011;11046;49.558;8.674;2024-03-06T14:33:44;26.63;;;13.77;;
21769;SDS011;11046;49.558;8.674;2024-03-06T14:36:46;24.70;;;13.82;;
21769;SDS011;11046;49.558;8.674;2024-03-06T14:40:15;29.90;;;14.18;;
21769;SDS011;11046;49.558;8.674;2024-03-06T14:43:34;27.77;;;14.33;;
21769;SDS011;11046;49.558;8.674;2024-03-06T14:46:58;27.87;;;14.77;;
21769;SDS011;11046;49.558;8.674;2024-03-06T14:50:00;28.13;;;14.33;;
21769;SDS011;11046;49.558;8.674;2024-03-06T14:57:53;31.57;;;15.87;;
21769;SDS011;11046;49.558;8.674;2024-03-06T15:01:11;25.58;;;14.15;;
21769;SDS011;11046;49.558;8.674;2024-03-06T15:04:20;27.20;;;14.00;;
21769;SDS011;11046;49.558;8.674;2024-03-06T15:07:28;29.30;;;13.80;;
21769;SDS011;11046;49.558;8.674;2024-03-06T15:10:54;24.53;;;13.13;;
21769;SDS011;11046;49.558;8.674;2024-03-06T15:14:38;27.00;;;13.23;;
21769;SDS011;11046;49.558;8.674;2024-03-06T15:22:01;27.50;;;13.83;;
21769;SDS011;11046;49.558;8.674;2024-03-06T15:25:05;26.63;;;13.50;;
21769;SDS011;11046;49.558;8.674;2024-03-06T15:28:06;26.40;;;13.40;;
21769;SDS011;11046;49.558;8.674;2024-03-06T15:31:09;26.53;;;13.63;;
21769;SDS011;11046;49.558;8.674;2024-03-06T15:34:09;25.67;;;12.77;;
21769;SDS011;11046;49.558;8.674;2024-03-06T15:37:10;25.63;;;13.43;;
21769;SDS011;11046;49.558;8.674;2024-03-06T15:40:11;31.30;;;14.50;;
21769;SDS011;11046;49.558;8.674;2024-03-06T15:43:12;29.83;;;14.03;;
21769;SDS011;11046;49.558;8.674;2024-03-06T15:46:12;25.10;;;13.13;;
21769;SDS011;11046;49.558;8.674;2024-03-06T15:49:23;26.20;;;13.17;;
21769;SDS011;11046;49.558;8.674;2024-03-06T15:52:26;26.90;;;13.93;;
21769;SDS011;11046;49.558;8.674;2024-03-06T15:55:27;26.33;;;13.67;;
21769;SDS011;11046;49.558;8.674;2024-03-06T15:58:27;27.50;;;13.63;;
21769;SDS011;11046;49.558;8.674;2024-03-06T16:01:28;27.57;;;13.87;;
21769;SDS011;11046;49.558;8.674;2024-03-06T16:04:29;27.73;;;13.07;;
21769;SDS011;11046;49.558;8.674;2024-03-06T16:07:30;30.67;;;14.27;;
21769;SDS011;11046;49.558;8.674;2024-03-06T16:10:32;26.17;;;13.63;;
21769;SDS011;11046;49.558;8.674;2024-03-06T16:13:34;30.83;;;14.23;;
21769;SDS011;11046;49.558;8.674;2024-03-06T16:16:34;27.83;;;14.63;;
21769;SDS011;11046;49.558;8.674;2024-03-06T16:19:35;29.73;;;13.73;;
21769;SDS011;11046;49.558;8.674;2024-03-06T16:22:36;27.67;;;13.80;;
21769;SDS011;11046;49.558;8.674;2024-03-06T16:25:37;25.50;;;13.07;;
21769;SDS011;11046;49.558;8.674;2024-03-06T16:28:37;27.60;;;14.40;;
21769;SDS011;11046;49.558;8.674;2024-03-06T16:31:38;28.97;;;13.77;;
21769;SDS011;11046;49.558;8.674;2024-03-06T16:34:39;28.53;;;13.87;;
21769;SDS011;11046;49.558;8.674;2024-03-06T16:37:45;27.77;;;14.17;;
21769;SDS011;11046;49.558;8.674;2024-03-06T16:40:49;26.60;;;13.97;;
21769;SDS011;11046;49.558;8.674;2024-03-06T16:43:50;27.20;;;13.87;;
21769;SDS011;11046;49.558;8.674;2024-03-06T16:46:51;24.90;;;12.77;;
21769;SDS011;11046;49.558;8.674;2024-03-06T16:49:52;26.80;;;13.50;;
21769;SDS011;11046;49.558;8.674;2024-03-06T16:52:52;28.97;;;13.63;;
21769;SDS011;11046;49.558;8.674;2024-03-06T16:55:53;29.23;;;13.80;;
21769;SDS011;11046;49.558;8.674;2024-03-06T16:58:54;28.50;;;14.50;;
21769;SDS011;11046;49.558;8.674;2024-03-06T17:01:54;30.23;;;15.50;;
21769;SDS011;11046;49.558;8.674;2024-03-06T17:04:56;28.03;;;14.37;;
21769;SDS011;11046;49.558;8.674;2024-03-06T17:07:57;28.33;;;13.37;;
21769;SDS011;11046;49.558;8.674;2024-03-06T17:10:58;31.00;;;13.50;;
21769;SDS011;11046;49.558;8.674;2024-03-06T17:13:59;30.10;;;13.90;;
21769;SDS011;11046;49.558;8.674;2024-03-06T17:16:59;26.77;;;12.63;;
21769;SDS011;11046;49.558;8.674;2024-03-06T17:20:00;25.13;;;13.33;;
21769;SDS011;11046;49.558;8.674;2024-03-06T17:23:01;27.47;;;13.73;;
21769;SDS011;11046;49.558;8.674;2024-03-06T17:26:03;25.07;;;13.90;;
21769;SDS011;11046;49.558;8.674;2024-03-06T17:29:04;31.30;;;15.40;;
21769;SDS011;11046;49.558;8.674;2024-03-06T17:32:05;30.87;;;15.43;;
21769;SDS011;11046;49.558;8.674;2024-03-06T17:35:06;30.37;;;14.17;;
21769;SDS011;11046;49.558;8.674;2024-03-06T17:38:08;28.37;;;14.03;;
21769;SDS011;11046;49.558;8.674;2024-03-06T17:41:13;26.70;;;13.60;;
21769;SDS011;11046;49.558;8.674;2024-03-06T17:44:14;27.43;;;14.17;;
21769;SDS011;11046;49.558;8.674;2024-03-06T17:47:14;34.60;;;16.33;;
21769;SDS011;11046;49.558;8.674;2024-03-06T17:50:15;34.03;;;15.40;;
21769;SDS011;11046;49.558;8.674;2024-03-06T17:53:16;32.97;;;17.30;;
21769;SDS011;11046;49.558;8.674;2024-03-06T17:56:18;30.40;;;17.37;;
21769;SDS011;11046;49.558;8.674;2024-03-06T17:59:21;30.20;;;15.97;;
21769;SDS011;11046;49.558;8.674;2024-03-06T18:02:24;28.57;;;14.80;;
21769;SDS011;11046;49.558;8.674;2024-03-06T18:05:25;34.37;;;13.53;;
21769;SDS011;11046;49.558;8.674;2024-03-06T18:08:26;27.00;;;13.73;;
21769;SDS011;11046;49.558;8.674;2024-03-06T18:11:27;32.23;;;14.83;;
21769;SDS011;11046;49.558;8.674;2024-03-06T18:14:29;31.23;;;15.60;;
21769;SDS011;11046;49.558;8.674;2024-03-06T18:17:57;31.27;;;15.27;;
21769;SDS011;11046;49.558;8.674;2024-03-06T18:21:32;27.37;;;13.43;;
21769;SDS011;11046;49.558;8.674;2024-03-06T18:25:01;40.17;;;16.47;;
21769;SDS011;11046;49.558;8.674;2024-03-06T18:28:25;37.10;;;17.50;;
21769;SDS011;11046;49.558;8.674;2024-03-06T18:33:07;29.83;;;14.07;;
21769;SDS011;11046;49.558;8.674;2024-03-06T18:36:34;28.37;;;12.73;;
21769;SDS011;11046;49.558;8.674;2024-03-06T18:40:43;30.20;;;14.63;;
21769;SDS011;11046;49.558;8.674;2024-03-06T18:44:16;29.10;;;14.07;;
21769;SDS011;11046;49.558;8.674;2024-03-06T18:47:25;33.57;;;15.17;;
21769;SDS011;11046;49.558;8.674;2024-03-06T18:50:46;33.47;;;14.90;;